메인 페이지
METAR-TAF:

METAR-TAF

공항 :

애들레이드 공항

애들레이드, 오스트레일리아

위도: 34-56S, 경도: 138-31E, 고도: 6m

현재 날씨관측

예보는 23분 전, 14:30시(UTC)에 발표되었습니다.
2kt
온도 8°C
습도 76%
기압 1025 hPa
시정 10km 이상
1500m 미만 상공 구름 및 적란운 없음

METAR: YPAD 251430Z 09002KT CAVOK 08/04 Q1025

시각: 00:23 (14:53 UTC)

예보

예보는 3 시간 23분 전, 11:30시(UTC)에 발표되었습니다.
예보 대상 시간: 25일 12시부터 26일 18시까지 (UTC)
북동5kt
시정 10km 이상
1500m 미만 상공 구름 및 적란운 없음
26일 0300시부터 (UTC)
8kt
시정 10km 이상
1500m 미만 상공 구름 및 적란운 없음
26일 0900시부터 (UTC)
남남서8kt
시정 10km 이상
1500m 미만 상공 구름 및 적란운 없음
26일 1200시부터 (UTC)
북동5kt
시정 10km 이상
1500m 미만 상공 구름 및 적란운 없음

TAF: YPAD 251130Z 2512/2618 04005KT CAVOK FM260300 27008KT CAVOK FM260900 20008KT CAVOK FM261200 04005KT CAVOK

4,000개 이상의 공항 관측 자료 및 예보 (METAR 및 TAF 보고).

지도상에서 검색 가능한 기상관측소가 노란 점과 빨간 점으로 표시되어 있습니다.

기상관측소 명을 보려면 표시 위로 마우스를 이동하세요.

날씨 관측과 예보를 보려면 클릭하세요.

지도 변경 : 확대하려면 엑스 표시가 있는 녹색 버튼, 축소하려면 빼기 표시가 있는 녹색 버튼, 다음 페이지의 지도를 보려면 녹색 화살표를 클릭하세요.


METAR-TAF: